Time;durP1;ratioP1;P1;durP2;ratioP2;P2;SDS_P1;SDS_P2;PMS_P1;PMS_P2;Temp;Humidity;BMP_temperature;BMP_pressure;BME280_temperature;BME280_humidity;BME280_pressure;Samples;Min_cycle;Max_cycle;Signal;HPM_P1;HPM_P2
2022/08/26 00:00:48;;;;;;;;;;;;;;;;;;5027711;28;19912;-77
2022/08/26 00:03:13;;;;;;;;;;;;;;;;;;5026516;28;19917;-76
2022/08/26 00:05:38;;;;;;;;;;;;;;;;;;5043141;28;19974;-76
2022/08/26 00:08:04;;;;;;;;;;;;;;;;;;5017509;28;19916;-76
2022/08/26 00:10:29;;;;;;;;;;;;;;;;;;5043474;28;19947;-77
2022/08/26 00:12:54;;;;;;;;;;;;;;;;;;5034050;28;20188;-77
2022/08/26 00:15:20;;;;;;;;;;;;;;;;;;5016769;28;20032;-77
2022/08/26 00:17:45;;;;;;;;;;;;;;;;;;5028178;28;19966;-76
2022/08/26 00:20:10;;;;;;;;;;;;;;;;;;5026944;28;19916;-75
2022/08/26 00:22:35;;;;;;;;;;;;;;;;;;5026959;28;20004;-76
2022/08/26 00:25:01;;;;;;;;;;;;;;;;;;5027632;28;19909;-76
2022/08/26 00:27:26;;;;;;;;;;;;;;;;;;5043173;28;20354;-77
2022/08/26 00:29:51;;;;;;;;;;;;;;;;;;5026113;28;19951;-76
2022/08/26 00:32:16;;;;;;;;;;;;;;;;;;5033441;28;20417;-76
2022/08/26 00:34:41;;;;;;;;;;;;;;;;;;5042559;28;19934;-76
2022/08/26 00:37:07;;;;;;;;;;;;;;;;;;5034183;28;19941;-76
2022/08/26 00:39:32;;;;;;;;;;;;;;;;;;5026524;28;20000;-76
2022/08/26 00:41:57;;;;;;;;;;;;;;;;;;5033356;28;20188;-77
2022/08/26 00:44:22;;;;;;;;;;;;;;;;;;5027513;28;19909;-76
2022/08/26 00:46:47;;;;;;;;;;;;;;;;;;5025498;28;19909;-77
2022/08/26 00:49:12;;;;;;;;;;;;;;;;;;5016235;28;19905;-77
2022/08/26 00:51:37;;;;;;;;;;;;;;;;;;5027196;28;19915;-77
2022/08/26 00:54:03;;;;;;;;;;;;;;;;;;5027643;28;19996;-76
2022/08/26 00:56:28;;;;;;;;;;;;;;;;;;5027628;28;19917;-76
2022/08/26 00:58:54;;;;;;;;;;;;;;;;;;5027608;28;20012;-77
2022/08/26 01:01:19;;;;;;;;;;;;;;;;;;5027382;28;19913;-77
2022/08/26 01:03:44;;;;;;;;;;;;;;;;;;5027314;28;20264;-77
2022/08/26 01:06:10;;;;;;;;;;;;;;;;;;5027432;28;19959;-76
2022/08/26 01:08:35;;;;;;;;;;;;;;;;;;5038713;28;20255;-76
2022/08/26 01:11:00;;;;;;;;;;;;;;;;;;5027283;28;19909;-77
2022/08/26 01:13:25;;;;;;;;;;;;;;;;;;5029563;28;19905;-76
2022/08/26 01:15:50;;;;;;;;;;;;;;;;;;5027596;28;19915;-77
2022/08/26 01:18:15;;;;;;;;;;;;;;;;;;5033570;28;19905;-77
2022/08/26 01:20:41;;;;;;;;;;;;;;;;;;5024129;28;20336;-76
2022/08/26 01:23:06;;;;;;;;;;;;;;;;;;5025606;28;19915;-77
2022/08/26 01:25:32;;;;;;;;;;;;;;;;;;5026314;28;19924;-76
2022/08/26 01:27:57;;;;;;;;;;;;;;;;;;5027647;28;19915;-77
2022/08/26 01:30:22;;;;;;;;;;;;;;;;;;5026948;28;19976;-77
2022/08/26 01:32:47;;;;;;;;;;;;;;;;;;5027298;28;19905;-77
2022/08/26 01:35:12;;;;;;;;;;;;;;;;;;5027749;28;19963;-77
2022/08/26 01:37:37;;;;;;;;;;;;;;;;;;5025640;28;19956;-77
2022/08/26 01:40:03;;;;;;;;;;;;;;;;;;5032261;28;19913;-77
2022/08/26 01:42:28;;;;;;;;;;;;;;;;;;5024869;28;19913;-77
2022/08/26 01:44:53;;;;;;;;;;;;;;;;;;5026401;28;20487;-77
2022/08/26 01:47:18;;;;;;;;;;;;;;;;;;5042996;28;20454;-77
2022/08/26 01:49:43;;;;;;;;;;;;;;;;;;5026438;28;19913;-77
2022/08/26 01:52:09;;;;;;;;;;;;;;;;;;5043350;28;19913;-77
2022/08/26 01:54:34;;;;;;;;;;;;;;;;;;5026704;28;20289;-76
2022/08/26 01:56:59;;;;;;;;;;;;;;;;;;5033518;28;20370;-76
2022/08/26 01:59:24;;;;;;;;;;;;;;;;;;5030670;28;19909;-76
2022/08/26 02:01:49;;;;;;;;;;;;;;;;;;5047107;28;19927;-77
2022/08/26 02:04:15;;;;;;;;;;;;;;;;;;5046165;28;19913;-76
2022/08/26 02:06:40;;;;;;;;;;;;;;;;;;5030174;28;19953;-77
2022/08/26 02:09:06;;;;;;;;;;;;;;;;;;5030964;28;19909;-77
2022/08/26 02:11:31;;;;;;;;;;;;;;;;;;5030796;28;19912;-77
2022/08/26 02:13:56;;;;;;;;;;;;;;;;;;5020399;28;19913;-76
2022/08/26 02:16:21;;;;;;;;;;;;;;;;;;5031071;28;19905;-77
2022/08/26 02:18:46;;;;;;;;;;;;;;;;;;5030035;28;19909;-77
2022/08/26 02:21:12;;;;;;;;;;;;;;;;;;5036304;28;20324;-77
2022/08/26 02:23:37;;;;;;;;;;;;;;;;;;5046464;28;19912;-77
2022/08/26 02:26:02;;;;;;;;;;;;;;;;;;5036611;28;19924;-77
2022/08/26 02:28:27;;;;;;;;;;;;;;;;;;5030680;28;20196;-77
2022/08/26 02:30:53;;;;;;;;;;;;;;;;;;5029426;28;20390;-76
2022/08/26 02:33:18;;;;;;;;;;;;;;;;;;5019885;28;20036;-77
2022/08/26 02:35:43;;;;;;;;;;;;;;;;;;5030856;28;19905;-77
2022/08/26 02:38:09;;;;;;;;;;;;;;;;;;5030596;28;19924;-77
2022/08/26 02:40:34;;;;;;;;;;;;;;;;;;5029080;28;19963;-76
2022/08/26 02:42:59;;;;;;;;;;;;;;;;;;5031064;28;20422;-76
2022/08/26 02:45:25;;;;;;;;;;;;;;;;;;5025610;23;19972;-90
2022/08/26 02:47:50;;;;;;;;;;;;;;;;;;5016591;28;19913;-89
2022/08/26 02:50:15;;;;;;;;;;;;;;;;;;5019541;28;19906;-90
2022/08/26 02:52:40;;;;;;;;;;;;;;;;;;5017945;28;19916;-90
2022/08/26 02:55:06;;;;;;;;;;;;;;;;;;5018215;28;19906;-89
2022/08/26 02:57:31;;;;;;;;;;;;;;;;;;5003556;28;19910;-90
2022/08/26 02:59:56;;;;;;;;;;;;;;;;;;5019904;28;19956;-89
2022/08/26 03:02:21;;;;;;;;;;;;;;;;;;5001023;28;19909;-90
2022/08/26 03:04:47;;;;;;;;;;;;;;;;;;5020609;28;19919;-91
2022/08/26 03:07:12;;;;;;;;;;;;;;;;;;5018196;28;19916;-90
2022/08/26 03:09:37;;;;;;;;;;;;;;;;;;5024259;28;19993;-90
2022/08/26 03:12:02;;;;;;;;;;;;;;;;;;5001590;28;19913;-90
2022/08/26 03:14:28;;;;;;;;;;;;;;;;;;4988312;28;19906;-90
2022/08/26 03:16:53;;;;;;;;;;;;;;;;;;5020792;28;19914;-90
2022/08/26 03:19:19;;;;;;;;;;;;;;;;;;5019022;28;19937;-90
2022/08/26 03:21:44;;;;;;;;;;;;;;;;;;5000836;28;19913;-91
2022/08/26 03:24:09;;;;;;;;;;;;;;;;;;4984378;28;19913;-89
2022/08/26 03:26:34;;;;;;;;;;;;;;;;;;5021080;28;20380;-89
2022/08/26 03:31:44;;;;;;;;;;;;;;;;;;5023317;28;20056;-90
2022/08/26 03:34:09;;;;;;;;;;;;;;;;;;5017338;28;19960;-89
2022/08/26 03:36:35;;;;;;;;;;;;;;;;;;5016979;28;19983;-90
2022/08/26 03:39:00;;;;;;;;;;;;;;;;;;5011736;28;20609;-89
2022/08/26 03:41:25;;;;;;;;;;;;;;;;;;5015335;28;19913;-90
2022/08/26 03:43:50;;;;;;;;;;;;;;;;;;5016908;28;19916;-90
2022/08/26 03:46:15;;;;;;;;;;;;;;;;;;4997348;28;20310;-90
2022/08/26 03:48:40;;;;;;;;;;;;;;;;;;5001864;28;19909;-90
2022/08/26 03:51:06;;;;;;;;;;;;;;;;;;4979173;28;19945;-90
2022/08/26 03:53:31;;;;;;;;;;;;;;;;;;5020465;28;19905;-90
2022/08/26 03:55:56;;;;;;;;;;;;;;;;;;5020820;28;19909;-90
2022/08/26 03:58:23;;;;;;;;;;;;;;;;;;5020495;28;19944;-90
2022/08/26 04:00:48;;;;;;;;;;;;;;;;;;5016385;28;19933;-90
2022/08/26 04:03:56;;;;;;;;;;;;;;;;;;4984301;28;20398;-90
2022/08/26 04:05:59;;;;;;;;;;;;;;;;;;4999440;28;19914;-89
2022/08/26 04:08:24;;;;;;;;;;;;;;;;;;5019869;28;19909;-90
2022/08/26 04:10:49;;;;;;;;;;;;;;;;;;5016656;28;19925;-89
2022/08/26 04:13:14;;;;;;;;;;;;;;;;;;5018281;28;19916;-90
2022/08/26 04:15:39;;;;;;;;;;;;;;;;;;5018275;28;19932;-89
2022/08/26 04:18:05;;;;;;;;;;;;;;;;;;5011501;28;19959;-90
2022/08/26 04:20:30;;;;;;;;;;;;;;;;;;5016561;28;19980;-90
2022/08/26 04:22:55;;;;;;;;;;;;;;;;;;5017971;28;19916;-89
2022/08/26 04:25:21;;;;;;;;;;;;;;;;;;5014944;28;19921;-90
2022/08/26 04:27:46;;;;;;;;;;;;;;;;;;5017279;28;19955;-90
2022/08/26 04:30:11;;;;;;;;;;;;;;;;;;4982628;28;20294;-90
2022/08/26 04:32:37;;;;;;;;;;;;;;;;;;4986353;28;19906;-89
2022/08/26 04:35:02;;;;;;;;;;;;;;;;;;5003122;28;19910;-90
2022/08/26 04:37:27;;;;;;;;;;;;;;;;;;4993935;28;19905;-90
2022/08/26 04:39:53;;;;;;;;;;;;;;;;;;5016557;28;19910;-90
2022/08/26 04:42:18;;;;;;;;;;;;;;;;;;4982627;28;19912;-90
2022/08/26 04:44:44;;;;;;;;;;;;;;;;;;4988161;28;20378;-90
2022/08/26 04:47:10;;;;;;;;;;;;;;;;;;5000650;28;20204;-89
2022/08/26 04:49:36;;;;;;;;;;;;;;;;;;4989737;28;20422;-90
2022/08/26 04:52:01;;;;;;;;;;;;;;;;;;5000157;28;19944;-89
2022/08/26 04:54:26;;;;;;;;;;;;;;;;;;4996277;28;19960;-89
2022/08/26 04:56:51;;;;;;;;;;;;;;;;;;5019549;28;19906;-89
2022/08/26 04:59:16;;;;;;;;;;;;;;;;;;5003085;28;19910;-90
2022/08/26 05:01:42;;;;;;;;;;;;;;;;;;5017590;28;19906;-90
2022/08/26 05:04:07;;;;;;;;;;;;;;;;;;5017731;28;19914;-89
2022/08/26 05:06:33;;;;;;;;;;;;;;;;;;5020448;28;20346;-88
2022/08/26 05:08:58;;;;;;;;;;;;;;;;;;5002902;28;19916;-90
2022/08/26 05:11:23;;;;;;;;;;;;;;;;;;5016473;28;19914;-89
2022/08/26 05:13:48;;;;;;;;;;;;;;;;;;5015024;28;20267;-89
2022/08/26 05:16:13;;;;;;;;;;;;;;;;;;4980640;28;19997;-89
2022/08/26 05:18:39;;;;;;;;;;;;;;;;;;5019151;28;19913;-90
2022/08/26 05:21:04;;;;;;;;;;;;;;;;;;4982611;28;19967;-88
2022/08/26 05:23:30;;;;;;;;;;;;;;;;;;5019356;28;20039;-89
2022/08/26 05:25:56;;;;;;;;;;;;;;;;;;5004857;28;19920;-88
2022/08/26 05:28:21;;;;;;;;;;;;;;;;;;5018402;28;19910;-90
2022/08/26 05:30:46;;;;;;;;;;;;;;;;;;5001612;28;19928;-89
2022/08/26 05:33:11;;;;;;;;;;;;;;;;;;5016835;28;19914;-89
2022/08/26 05:35:37;;;;;;;;;;;;;;;;;;5023355;28;19909;-89
2022/08/26 05:38:02;;;;;;;;;;;;;;;;;;5024371;28;19945;-89
2022/08/26 05:40:27;;;;;;;;;;;;;;;;;;5020888;28;19910;-90
2022/08/26 05:42:52;;;;;;;;;;;;;;;;;;5004281;28;19910;-90
2022/08/26 05:45:17;;;;;;;;;;;;;;;;;;5021912;28;19967;-89
2022/08/26 05:47:43;;;;;;;;;;;;;;;;;;5017306;28;20233;-90
2022/08/26 05:50:08;;;;;;;;;;;;;;;;;;5008230;28;20629;-89
2022/08/26 05:52:33;;;;;;;;;;;;;;;;;;5007907;28;19913;-90
2022/08/26 05:54:58;;;;;;;;;;;;;;;;;;5025843;28;19996;-90
2022/08/26 05:57:23;;;;;;;;;;;;;;;;;;5021282;28;19917;-90
2022/08/26 05:59:49;;;;;;;;;;;;;;;;;;5023563;28;19910;-89
2022/08/26 06:02:14;;;;;;;;;;;;;;;;;;5020015;28;19982;-90
2022/08/26 06:04:39;;;;;;;;;;;;;;;;;;5025172;28;20366;-89
2022/08/26 06:07:04;;;;;;;;;;;;;;;;;;5017598;28;20362;-89
2022/08/26 06:09:29;;;;;;;;;;;;;;;;;;5023959;28;19909;-91
2022/08/26 06:12:00;;;;;;;;;;;;;;;;;;4979522;28;19914;-91
2022/08/26 06:14:25;;;;;;;;;;;;;;;;;;5011315;28;19910;-89
2022/08/26 06:17:00;;;;;;;;;;;;;;;;;;5026641;28;19912;-91
2022/08/26 06:19:25;;;;;;;;;;;;;;;;;;5023157;28;19916;-90
2022/08/26 06:21:51;;;;;;;;;;;;;;;;;;5026176;28;20278;-90
2022/08/26 06:27:18;;;;;;;;;;;;;;;;;;5016641;28;19917;-87
2022/08/26 06:29:44;;;;;;;;;;;;;;;;;;5028201;28;19914;-87
2022/08/26 06:32:09;;;;;;;;;;;;;;;;;;5006864;28;19909;-88
2022/08/26 06:34:34;;;;;;;;;;;;;;;;;;5027154;28;19923;-88
2022/08/26 06:37:01;;;;;;;;;;;;;;;;;;5031168;28;19905;-88
2022/08/26 06:39:26;;;;;;;;;;;;;;;;;;5023896;28;20366;-89
2022/08/26 06:41:51;;;;;;;;;;;;;;;;;;5026653;28;19913;-88
2022/08/26 06:44:16;;;;;;;;;;;;;;;;;;5005976;28;19936;-89
2022/08/26 06:46:42;;;;;;;;;;;;;;;;;;5023936;28;19905;-89
2022/08/26 06:49:07;;;;;;;;;;;;;;;;;;4992126;28;19933;-88
2022/08/26 06:51:32;;;;;;;;;;;;;;;;;;5028419;28;20328;-90
2022/08/26 06:54:00;;;;;;;;;;;;;;;;;;5000035;28;19921;-87
2022/08/26 06:56:25;;;;;;;;;;;;;;;;;;4994354;28;19909;-88
2022/08/26 06:58:51;;;;;;;;;;;;;;;;;;4995521;28;19921;-90
2022/08/26 07:01:16;;;;;;;;;;;;;;;;;;4991020;28;19921;-88
2022/08/26 07:03:41;;;;;;;;;;;;;;;;;;5025921;28;19913;-89
2022/08/26 07:06:06;;;;;;;;;;;;;;;;;;4991123;28;19906;-88
2022/08/26 07:08:32;;;;;;;;;;;;;;;;;;5026997;28;19959;-90
2022/08/26 07:10:57;;;;;;;;;;;;;;;;;;4989783;28;19906;-88
2022/08/26 07:13:22;;;;;;;;;;;;;;;;;;5025209;28;19932;-88
2022/08/26 07:15:47;;;;;;;;;;;;;;;;;;5024578;28;19905;-89
2022/08/26 07:18:13;;;;;;;;;;;;;;;;;;5001058;28;19914;-89
2022/08/26 07:20:39;;;;;;;;;;;;;;;;;;5027449;28;19945;-89
2022/08/26 07:23:04;;;;;;;;;;;;;;;;;;5000597;28;19914;-88
2022/08/26 07:25:29;;;;;;;;;;;;;;;;;;5027604;28;19920;-88
2022/08/26 07:27:54;;;;;;;;;;;;;;;;;;5024324;28;19910;-88
2022/08/26 07:30:19;;;;;;;;;;;;;;;;;;5027761;28;19916;-89
2022/08/26 07:32:45;;;;;;;;;;;;;;;;;;5023290;28;20373;-89
2022/08/26 07:35:10;;;;;;;;;;;;;;;;;;4989532;28;20378;-89
2022/08/26 07:37:35;;;;;;;;;;;;;;;;;;5027013;28;19914;-89
2022/08/26 07:40:00;;;;;;;;;;;;;;;;;;5028153;28;19906;-88
2022/08/26 07:42:26;;;;;;;;;;;;;;;;;;5025633;28;19913;-89
2022/08/26 07:44:51;;;;;;;;;;;;;;;;;;5030778;28;19932;-88
2022/08/26 07:47:16;;;;;;;;;;;;;;;;;;5022878;28;19910;-89
2022/08/26 07:49:41;;;;;;;;;;;;;;;;;;5024879;28;19976;-89
2022/08/26 07:52:08;;;;;;;;;;;;;;;;;;5000138;28;19910;-89
2022/08/26 07:54:33;;;;;;;;;;;;;;;;;;5025980;28;19909;-90
2022/08/26 07:56:58;;;;;;;;;;;;;;;;;;5016971;28;20222;-89
2022/08/26 07:59:23;;;;;;;;;;;;;;;;;;5026030;28;19913;-89
2022/08/26 08:01:56;;;;;;;;;;;;;;;;;;5024761;28;19920;-88
2022/08/26 08:04:21;;;;;;;;;;;;;;;;;;5022471;28;19913;-87
2022/08/26 08:06:47;;;;;;;;;;;;;;;;;;5022211;28;19906;-90
2022/08/26 08:09:12;;;;;;;;;;;;;;;;;;5019119;28;19910;-90
2022/08/26 08:11:37;;;;;;;;;;;;;;;;;;5023826;28;19909;-89
2022/08/26 08:14:03;;;;;;;;;;;;;;;;;;4998872;28;19945;-89
2022/08/26 08:16:28;;;;;;;;;;;;;;;;;;4989141;28;19960;-87
2022/08/26 08:18:53;;;;;;;;;;;;;;;;;;5010632;28;19949;-89
2022/08/26 08:21:18;;;;;;;;;;;;;;;;;;5015857;28;20435;-87
2022/08/26 08:23:44;;;;;;;;;;;;;;;;;;5017010;28;19910;-87
2022/08/26 08:26:09;;;;;;;;;;;;;;;;;;5016195;28;19913;-88
2022/08/26 08:28:34;;;;;;;;;;;;;;;;;;4997047;28;19936;-88
2022/08/26 08:31:00;;;;;;;;;;;;;;;;;;5013331;28;19906;-89
2022/08/26 08:33:26;;;;;;;;;;;;;;;;;;5001864;28;19915;-89
2022/08/26 08:35:51;;;;;;;;;;;;;;;;;;5003904;28;19906;-89
2022/08/26 08:38:16;;;;;;;;;;;;;;;;;;5019662;28;19909;-89
2022/08/26 08:40:41;;;;;;;;;;;;;;;;;;5014348;28;19968;-89
2022/08/26 08:43:06;;;;;;;;;;;;;;;;;;5019748;28;20267;-89
2022/08/26 08:45:31;;;;;;;;;;;;;;;;;;5021932;28;19913;-90
2022/08/26 08:47:57;;;;;;;;;;;;;;;;;;5027489;28;19909;-88
2022/08/26 08:50:22;;;;;;;;;;;;;;;;;;4996670;28;19915;-90
2022/08/26 08:52:47;;;;;;;;;;;;;;;;;;5026706;28;19941;-90
2022/08/26 08:55:12;;;;;;;;;;;;;;;;;;5022513;28;19921;-89
2022/08/26 08:57:38;;;;;;;;;;;;;;;;;;5024593;28;20003;-89
2022/08/26 09:00:04;;;;;;;;;;;;;;;;;;4987376;28;20709;-88
2022/08/26 09:02:29;;;;;;;;;;;;;;;;;;4988068;28;19984;-88
2022/08/26 09:04:54;;;;;;;;;;;;;;;;;;5025093;28;19971;-89
2022/08/26 09:07:19;;;;;;;;;;;;;;;;;;5016857;28;19916;-89
2022/08/26 09:09:45;;;;;;;;;;;;;;;;;;5025088;28;19952;-88
2022/08/26 09:12:11;;;;;;;;;;;;;;;;;;5027084;28;19910;-89
2022/08/26 09:14:37;;;;;;;;;;;;;;;;;;5023607;28;19909;-89
2022/08/26 09:17:02;;;;;;;;;;;;;;;;;;4977590;28;20366;-89
2022/08/26 09:19:27;;;;;;;;;;;;;;;;;;4993184;28;20640;-90
2022/08/26 09:21:52;;;;;;;;;;;;;;;;;;5025249;28;19913;-89
2022/08/26 09:24:18;;;;;;;;;;;;;;;;;;5021292;28;19979;-87
2022/08/26 09:26:43;;;;;;;;;;;;;;;;;;5013456;28;19956;-88
2022/08/26 09:29:08;;;;;;;;;;;;;;;;;;5013949;28;20381;-87
2022/08/26 09:31:34;;;;;;;;;;;;;;;;;;5017511;28;20305;-91
2022/08/26 09:33:59;;;;;;;;;;;;;;;;;;5019113;28;20436;-91
2022/08/26 09:36:25;;;;;;;;;;;;;;;;;;5016197;28;19909;-90
2022/08/26 09:38:50;;;;;;;;;;;;;;;;;;4998612;28;19945;-89
2022/08/26 09:41:15;;;;;;;;;;;;;;;;;;5015834;28;20341;-86
2022/08/26 09:43:40;;;;;;;;;;;;;;;;;;5015107;28;19913;-87
2022/08/26 09:46:06;;;;;;;;;;;;;;;;;;5016922;28;19913;-86
2022/08/26 09:48:31;;;;;;;;;;;;;;;;;;4996533;28;19905;-85
2022/08/26 09:50:56;;;;;;;;;;;;;;;;;;4998261;28;19909;-85
2022/08/26 09:53:21;;;;;;;;;;;;;;;;;;4995937;28;20096;-86
2022/08/26 09:55:47;;;;;;;;;;;;;;;;;;5019393;28;19909;-85
2022/08/26 09:58:12;;;;;;;;;;;;;;;;;;4998126;28;19949;-86
2022/08/26 10:00:37;;;;;;;;;;;;;;;;;;4996150;28;19957;-88
2022/08/26 10:03:02;;;;;;;;;;;;;;;;;;4997572;28;19906;-88
2022/08/26 10:05:28;;;;;;;;;;;;;;;;;;5017208;28;19979;-91
2022/08/26 10:07:53;;;;;;;;;;;;;;;;;;5017821;28;19921;-89
2022/08/26 10:10:18;;;;;;;;;;;;;;;;;;4998664;28;19913;-89
2022/08/26 10:12:43;;;;;;;;;;;;;;;;;;5015346;28;20382;-89
2022/08/26 10:15:09;;;;;;;;;;;;;;;;;;5016482;28;19948;-86
2022/08/26 10:17:34;;;;;;;;;;;;;;;;;;5009534;28;19916;-88
2022/08/26 10:19:59;;;;;;;;;;;;;;;;;;4999650;28;20008;-88
2022/08/26 10:22:24;;;;;;;;;;;;;;;;;;5018254;28;19910;-88
2022/08/26 10:24:49;;;;;;;;;;;;;;;;;;5020478;28;19917;-89
2022/08/26 10:27:15;;;;;;;;;;;;;;;;;;5009296;28;19906;-89
2022/08/26 10:29:40;;;;;;;;;;;;;;;;;;5024437;28;19910;-89
2022/08/26 10:32:05;;;;;;;;;;;;;;;;;;5024559;28;19913;-89
2022/08/26 10:34:30;;;;;;;;;;;;;;;;;;5023985;28;19921;-88
2022/08/26 10:36:57;;;;;;;;;;;;;;;;;;4982406;28;19916;-87
2022/08/26 10:39:23;;;;;;;;;;;;;;;;;;4989518;28;19935;-87
2022/08/26 10:41:48;;;;;;;;;;;;;;;;;;5019817;28;20453;-87
2022/08/26 10:44:13;;;;;;;;;;;;;;;;;;5018332;28;19968;-89
2022/08/26 10:46:38;;;;;;;;;;;;;;;;;;5016363;28;20274;-90
2022/08/26 10:49:04;;;;;;;;;;;;;;;;;;5009379;28;19956;-89
2022/08/26 10:51:30;;;;;;;;;;;;;;;;;;5016240;28;19913;-89
2022/08/26 10:53:56;;;;;;;;;;;;;;;;;;5019770;28;19977;-91
2022/08/26 10:56:21;;;;;;;;;;;;;;;;;;5011669;28;20248;-91
2022/08/26 10:58:46;;;;;;;;;;;;;;;;;;5025884;28;19916;-88
2022/08/26 11:03:55;;;;;;;;;;;;;;;;;;5015324;28;19945;-90
2022/08/26 11:06:20;;;;;;;;;;;;;;;;;;5023696;28;19906;-89
2022/08/26 11:08:46;;;;;;;;;;;;;;;;;;5026553;28;19935;-89
2022/08/26 11:11:11;;;;;;;;;;;;;;;;;;4992690;28;19906;-89
2022/08/26 11:13:36;;;;;;;;;;;;;;;;;;5027741;28;19909;-88
2022/08/26 11:16:01;;;;;;;;;;;;;;;;;;5028603;28;19932;-90
2022/08/26 11:18:27;;;;;;;;;;;;;;;;;;5026929;28;19932;-89
2022/08/26 11:20:52;;;;;;;;;;;;;;;;;;5006742;28;19905;-90
2022/08/26 11:23:17;;;;;;;;;;;;;;;;;;5024480;28;19917;-90
2022/08/26 11:25:42;;;;;;;;;;;;;;;;;;5032134;28;19909;-89
2022/08/26 11:28:08;;;;;;;;;;;;;;;;;;5028935;28;19909;-90
2022/08/26 11:30:33;;;;;;;;;;;;;;;;;;5025347;28;19917;-88
2022/08/26 11:32:58;;;;;;;;;;;;;;;;;;4987691;28;19914;-89
2022/08/26 11:35:23;;;;;;;;;;;;;;;;;;5001081;28;20408;-89
2022/08/26 11:37:48;;;;;;;;;;;;;;;;;;5027594;28;19917;-89
2022/08/26 11:40:14;;;;;;;;;;;;;;;;;;5023709;28;19965;-88
2022/08/26 11:42:39;;;;;;;;;;;;;;;;;;5028368;28;19910;-89
2022/08/26 11:45:05;;;;;;;;;;;;;;;;;;5029621;28;19924;-90
2022/08/26 11:47:30;;;;;;;;;;;;;;;;;;5011927;28;19913;-89
2022/08/26 11:49:55;;;;;;;;;;;;;;;;;;5028547;28;19920;-89
2022/08/26 11:52:20;;;;;;;;;;;;;;;;;;5024800;28;19929;-89
2022/08/26 11:54:46;;;;;;;;;;;;;;;;;;5025757;28;20053;-91
2022/08/26 11:57:11;;;;;;;;;;;;;;;;;;5000935;28;19910;-90
2022/08/26 11:59:37;;;;;;;;;;;;;;;;;;5028242;28;19906;-89
2022/08/26 12:02:02;;;;;;;;;;;;;;;;;;5008309;28;20336;-90
2022/08/26 12:04:28;;;;;;;;;;;;;;;;;;5024079;28;19916;-89
2022/08/26 12:06:53;;;;;;;;;;;;;;;;;;5024743;28;19913;-90
2022/08/26 12:09:18;;;;;;;;;;;;;;;;;;4995110;28;19940;-89
2022/08/26 12:11:43;;;;;;;;;;;;;;;;;;5027925;28;19962;-89
2022/08/26 12:14:10;;;;;;;;;;;;;;;;;;5027255;28;19909;-89
2022/08/26 12:16:36;;;;;;;;;;;;;;;;;;5017986;28;19921;-89
2022/08/26 12:19:01;;;;;;;;;;;;;;;;;;4990296;28;19905;-90
2022/08/26 12:21:28;;;;;;;;;;;;;;;;;;5002622;28;19917;-88
2022/08/26 12:23:53;;;;;;;;;;;;;;;;;;5026930;28;20293;-90
2022/08/26 12:26:19;;;;;;;;;;;;;;;;;;5022737;28;19956;-89
2022/08/26 12:28:45;;;;;;;;;;;;;;;;;;5024678;28;19951;-89
2022/08/26 12:31:10;;;;;;;;;;;;;;;;;;5015960;28;19968;-91
2022/08/26 12:33:35;;;;;;;;;;;;;;;;;;5024197;28;19909;-89
2022/08/26 12:36:00;;;;;;;;;;;;;;;;;;5001645;28;20428;-90
2022/08/26 12:38:26;;;;;;;;;;;;;;;;;;4993511;28;19916;-90
2022/08/26 12:40:51;;;;;;;;;;;;;;;;;;5017144;28;19910;-89
2022/08/26 12:43:17;;;;;;;;;;;;;;;;;;5016991;28;20340;-89
2022/08/26 12:45:42;;;;;;;;;;;;;;;;;;5016544;28;19913;-89
2022/08/26 12:48:08;;;;;;;;;;;;;;;;;;5015879;28;19944;-89
2022/08/26 12:50:34;;;;;;;;;;;;;;;;;;5012427;28;19968;-89
2022/08/26 12:52:59;;;;;;;;;;;;;;;;;;4996820;28;19909;-89
2022/08/26 12:55:24;;;;;;;;;;;;;;;;;;5012964;28;20423;-89
2022/08/26 12:57:49;;;;;;;;;;;;;;;;;;5013116;28;19925;-89
2022/08/26 13:00:14;;;;;;;;;;;;;;;;;;4997990;28;20397;-90
2022/08/26 13:02:40;;;;;;;;;;;;;;;;;;5016885;28;20285;-90
2022/08/26 13:05:05;;;;;;;;;;;;;;;;;;5016137;28;19913;-89
2022/08/26 13:07:30;;;;;;;;;;;;;;;;;;5013386;28;20378;-90
2022/08/26 13:09:55;;;;;;;;;;;;;;;;;;5020272;28;20006;-88
2022/08/26 13:12:20;;;;;;;;;;;;;;;;;;5013679;28;19905;-89
2022/08/26 13:14:46;;;;;;;;;;;;;;;;;;4997106;28;20282;-91
2022/08/26 13:17:11;;;;;;;;;;;;;;;;;;4997611;28;19914;-91
2022/08/26 13:19:36;;;;;;;;;;;;;;;;;;5015745;28;19914;-92
2022/08/26 13:22:02;;;;;;;;;;;;;;;;;;5011999;28;19994;-89
2022/08/26 13:24:27;;;;;;;;;;;;;;;;;;4999028;28;19920;-90
2022/08/26 13:26:53;;;;;;;;;;;;;;;;;;4999209;28;19905;-90
2022/08/26 13:29:18;;;;;;;;;;;;;;;;;;5015431;28;20011;-90
2022/08/26 13:31:43;;;;;;;;;;;;;;;;;;5013892;28;19914;-91
2022/08/26 13:34:08;;;;;;;;;;;;;;;;;;5010191;28;19913;-90
2022/08/26 13:36:33;;;;;;;;;;;;;;;;;;4997384;28;19910;-90
2022/08/26 13:38:59;;;;;;;;;;;;;;;;;;5013697;28;19909;-91
2022/08/26 13:41:24;;;;;;;;;;;;;;;;;;5016709;28;19960;-90
2022/08/26 13:43:49;;;;;;;;;;;;;;;;;;5013680;28;19916;-90
2022/08/26 13:46:15;;;;;;;;;;;;;;;;;;5017609;28;19909;-90
2022/08/26 13:48:40;;;;;;;;;;;;;;;;;;5014232;28;19960;-90
2022/08/26 13:51:05;;;;;;;;;;;;;;;;;;5014774;28;19912;-91
2022/08/26 13:56:31;;;;;;;;;;;;;;;;;;5012932;28;19917;-91
2022/08/26 13:58:56;;;;;;;;;;;;;;;;;;5021040;28;19913;-90
2022/08/26 14:01:21;;;;;;;;;;;;;;;;;;5018188;28;19912;-91
2022/08/26 14:03:46;;;;;;;;;;;;;;;;;;5017497;28;19910;-90
2022/08/26 14:06:12;;;;;;;;;;;;;;;;;;5001123;28;19916;-91
2022/08/26 14:08:37;;;;;;;;;;;;;;;;;;5022138;28;19910;-90
2022/08/26 14:11:02;;;;;;;;;;;;;;;;;;5021275;28;19906;-91
2022/08/26 14:13:27;;;;;;;;;;;;;;;;;;5021728;28;20000;-90
2022/08/26 14:15:52;;;;;;;;;;;;;;;;;;5019633;28;19974;-90
2022/08/26 14:18:18;;;;;;;;;;;;;;;;;;5022947;28;19919;-91
2022/08/26 14:20:43;;;;;;;;;;;;;;;;;;5022363;28;19932;-91
2022/08/26 14:23:09;;;;;;;;;;;;;;;;;;5024650;28;19917;-90
2022/08/26 14:25:34;;;;;;;;;;;;;;;;;;5004665;28;19920;-90
2022/08/26 14:28:00;;;;;;;;;;;;;;;;;;5007878;28;20051;-87
2022/08/26 14:30:25;;;;;;;;;;;;;;;;;;5021787;28;20198;-90
2022/08/26 14:32:50;;;;;;;;;;;;;;;;;;5019448;28;19916;-89
2022/08/26 14:35:15;;;;;;;;;;;;;;;;;;5025267;28;19910;-90
2022/08/26 14:37:41;;;;;;;;;;;;;;;;;;5024729;28;19968;-90
2022/08/26 14:40:06;;;;;;;;;;;;;;;;;;5014697;28;19917;-90
2022/08/26 14:42:33;;;;;;;;;;;;;;;;;;5017869;28;19957;-89
2022/08/26 14:44:58;;;;;;;;;;;;;;;;;;5014367;28;19921;-90
2022/08/26 14:47:23;;;;;;;;;;;;;;;;;;5011080;28;19913;-90
2022/08/26 14:49:49;;;;;;;;;;;;;;;;;;5020199;28;19912;-90
2022/08/26 14:52:14;;;;;;;;;;;;;;;;;;5018196;28;19916;-88
2022/08/26 14:54:39;;;;;;;;;;;;;;;;;;5016355;28;19905;-88
2022/08/26 14:57:04;;;;;;;;;;;;;;;;;;5017636;28;19910;-90
2022/08/26 14:59:29;;;;;;;;;;;;;;;;;;5020892;28;20003;-90
2022/08/26 15:01:55;;;;;;;;;;;;;;;;;;5000262;28;19916;-89
2022/08/26 15:04:20;;;;;;;;;;;;;;;;;;4984322;28;19914;-86
2022/08/26 15:06:45;;;;;;;;;;;;;;;;;;5016352;28;19968;-90
2022/08/26 15:09:10;;;;;;;;;;;;;;;;;;5017646;28;19913;-91
2022/08/26 15:11:36;;;;;;;;;;;;;;;;;;5023817;28;19914;-91
2022/08/26 15:14:01;;;;;;;;;;;;;;;;;;5021870;28;19906;-92
2022/08/26 15:16:26;;;;;;;;;;;;;;;;;;5026619;28;19944;-90
2022/08/26 15:18:52;;;;;;;;;;;;;;;;;;5027315;28;19912;-90
2022/08/26 15:21:18;;;;;;;;;;;;;;;;;;5021997;28;19956;-89
2022/08/26 15:23:43;;;;;;;;;;;;;;;;;;5016180;28;20004;-91
2022/08/26 15:26:08;;;;;;;;;;;;;;;;;;5016807;28;20056;-87
2022/08/26 15:28:33;;;;;;;;;;;;;;;;;;5024141;28;19910;-88
2022/08/26 15:30:59;;;;;;;;;;;;;;;;;;5018906;28;19917;-88
2022/08/26 15:33:24;;;;;;;;;;;;;;;;;;5016482;28;20003;-87
2022/08/26 15:35:49;;;;;;;;;;;;;;;;;;4999007;28;19960;-89
2022/08/26 15:38:14;;;;;;;;;;;;;;;;;;5017774;28;20335;-90
2022/08/26 15:40:40;;;;;;;;;;;;;;;;;;5018373;28;19915;-90
2022/08/26 15:43:07;;;;;;;;;;;;;;;;;;5021836;28;19912;-90
2022/08/26 15:45:36;;;;;;;;;;;;;;;;;;5013540;28;19924;-91
2022/08/26 15:48:02;;;;;;;;;;;;;;;;;;5020884;28;19905;-90
2022/08/26 15:50:27;;;;;;;;;;;;;;;;;;5023403;28;20007;-89
2022/08/26 15:52:52;;;;;;;;;;;;;;;;;;5023162;28;20024;-90
2022/08/26 15:55:18;;;;;;;;;;;;;;;;;;5000883;28;19969;-88
2022/08/26 15:57:43;;;;;;;;;;;;;;;;;;5023311;28;19909;-89
2022/08/26 16:00:08;;;;;;;;;;;;;;;;;;4989402;28;19913;-86
2022/08/26 16:02:36;;;;;;;;;;;;;;;;;;5016457;28;20294;-89
2022/08/26 16:05:02;;;;;;;;;;;;;;;;;;5010752;28;19914;-89
2022/08/26 16:07:27;;;;;;;;;;;;;;;;;;4987779;28;19909;-90
2022/08/26 16:09:53;;;;;;;;;;;;;;;;;;5022120;28;19916;-89
2022/08/26 16:12:18;;;;;;;;;;;;;;;;;;4992771;28;19964;-89
2022/08/26 16:14:43;;;;;;;;;;;;;;;;;;5013547;28;19909;-88
2022/08/26 16:17:09;;;;;;;;;;;;;;;;;;4998964;28;19996;-90
2022/08/26 16:19:34;;;;;;;;;;;;;;;;;;5016027;28;19910;-90
2022/08/26 16:21:59;;;;;;;;;;;;;;;;;;4987528;28;19917;-89
2022/08/26 16:24:25;;;;;;;;;;;;;;;;;;5013085;28;19913;-90
2022/08/26 16:26:50;;;;;;;;;;;;;;;;;;5019614;28;19913;-89
2022/08/26 16:29:15;;;;;;;;;;;;;;;;;;4992878;28;19981;-89
2022/08/26 16:31:40;;;;;;;;;;;;;;;;;;5017649;28;19937;-88
2022/08/26 16:34:05;;;;;;;;;;;;;;;;;;5015914;28;19977;-89
2022/08/26 16:36:30;;;;;;;;;;;;;;;;;;5001275;28;20012;-88
2022/08/26 16:38:56;;;;;;;;;;;;;;;;;;5016164;28;19913;-88
2022/08/26 16:41:21;;;;;;;;;;;;;;;;;;5019507;28;19912;-87
2022/08/26 16:43:46;;;;;;;;;;;;;;;;;;5001089;28;19925;-90